createdAt,value
2022-12-16T00:00:56.409Z,942.00
2022-12-16T00:01:56.499Z,942.03
2022-12-16T00:02:56.474Z,942.08
2022-12-16T00:03:56.782Z,942.06
2022-12-16T00:04:56.249Z,942.12
2022-12-16T00:05:56.264Z,942.16
2022-12-16T00:06:56.236Z,942.14
2022-12-16T00:07:56.481Z,942.10
2022-12-16T00:08:56.184Z,942.13
2022-12-16T00:09:56.301Z,942.08
2022-12-16T00:10:56.176Z,942.07
2022-12-16T00:11:56.212Z,942.00
2022-12-16T00:12:56.618Z,941.98
2022-12-16T00:13:56.448Z,941.98
2022-12-16T00:14:56.239Z,941.96
2022-12-16T00:15:56.195Z,942.03
2022-12-16T00:16:56.121Z,942.03
2022-12-16T00:17:56.131Z,942.02
2022-12-16T00:18:56.100Z,942.07
2022-12-16T00:19:56.163Z,942.05
2022-12-16T00:20:56.071Z,942.07
2022-12-16T00:21:56.074Z,942.08
2022-12-16T00:22:56.188Z,942.12
2022-12-16T00:23:56.962Z,942.13
2022-12-16T00:24:55.996Z,942.12
2022-12-16T00:25:56.090Z,942.14
2022-12-16T00:26:56.003Z,942.16
2022-12-16T00:28:00.485Z,942.14
2022-12-16T00:28:55.974Z,942.15
2022-12-16T00:29:56.003Z,942.15
2022-12-16T00:30:55.921Z,942.21
2022-12-16T00:31:55.996Z,942.15
2022-12-16T00:32:55.972Z,942.18
2022-12-16T00:33:55.881Z,942.16
2022-12-16T00:34:55.856Z,942.15
2022-12-16T00:35:55.924Z,942.15
2022-12-16T00:36:55.851Z,942.16
2022-12-16T00:37:55.882Z,942.11
2022-12-16T00:38:55.840Z,942.10
2022-12-16T00:39:55.850Z,942.04
2022-12-16T00:40:55.805Z,942.04
2022-12-16T00:41:55.777Z,942.03
2022-12-16T00:42:55.752Z,942.00
2022-12-16T00:43:56.257Z,941.95
2022-12-16T00:44:55.783Z,941.91
2022-12-16T00:45:55.769Z,941.95
2022-12-16T00:46:55.713Z,941.97
2022-12-16T00:47:55.678Z,941.94
2022-12-16T00:48:55.664Z,941.95
2022-12-16T00:49:55.933Z,942.00
2022-12-16T00:50:55.816Z,941.97
2022-12-16T00:51:55.705Z,942.01
2022-12-16T00:52:56.590Z,942.01
2022-12-16T00:53:55.677Z,942.01
2022-12-16T00:54:55.587Z,942.00
2022-12-16T00:55:55.800Z,942.02
2022-12-16T00:56:55.610Z,942.08
2022-12-16T00:57:55.561Z,942.10
2022-12-16T00:58:56.050Z,942.11
2022-12-16T00:59:55.512Z,942.17
2022-12-16T01:00:55.805Z,942.20
2022-12-16T01:01:55.824Z,942.24
2022-12-16T01:02:55.615Z,942.23
2022-12-16T01:03:55.823Z,942.29
2022-12-16T01:04:55.591Z,942.29
2022-12-16T01:05:55.752Z,942.35
2022-12-16T01:06:55.519Z,942.39
2022-12-16T01:07:55.591Z,942.42
2022-12-16T01:08:55.800Z,942.44
2022-12-16T01:09:55.387Z,942.43
2022-12-16T01:10:55.917Z,942.45
2022-12-16T01:11:55.458Z,942.51
2022-12-16T01:12:55.377Z,942.46
2022-12-16T01:13:55.678Z,942.50
2022-12-16T01:14:55.488Z,942.52
2022-12-16T01:15:56.554Z,942.53
2022-12-16T01:16:55.340Z,942.51
2022-12-16T01:17:55.512Z,942.51
2022-12-16T01:18:55.468Z,942.50
2022-12-16T01:19:55.655Z,942.44
2022-12-16T01:20:55.648Z,942.47
2022-12-16T01:21:56.227Z,942.41
2022-12-16T01:22:55.196Z,942.43
2022-12-16T01:23:55.424Z,942.46
2022-12-16T01:24:55.369Z,942.44
2022-12-16T01:25:55.424Z,942.47
2022-12-16T01:26:55.187Z,942.49
2022-12-16T01:27:55.171Z,942.52
2022-12-16T01:28:55.579Z,942.56
2022-12-16T01:29:55.638Z,942.64
2022-12-16T01:30:55.668Z,942.66
2022-12-16T01:31:55.506Z,942.65
2022-12-16T01:32:55.308Z,942.71
2022-12-16T01:33:55.244Z,942.72
2022-12-16T01:34:55.878Z,942.74
2022-12-16T01:35:56.277Z,942.77
2022-12-16T01:36:55.424Z,942.79
2022-12-16T01:37:55.454Z,942.80
2022-12-16T01:38:55.778Z,942.78
2022-12-16T01:39:55.088Z,942.77
2022-12-16T01:40:55.358Z,942.75
2022-12-16T01:41:55.221Z,942.73
2022-12-16T01:42:55.368Z,942.73
2022-12-16T01:43:55.593Z,942.72
2022-12-16T01:44:55.316Z,942.74
2022-12-16T01:45:55.240Z,942.73
2022-12-16T01:46:55.396Z,942.72
2022-12-16T01:47:55.422Z,942.74
2022-12-16T01:48:55.595Z,942.77
2022-12-16T01:49:55.600Z,942.79
2022-12-16T01:50:55.557Z,942.85
2022-12-16T01:51:55.601Z,942.85
2022-12-16T01:52:55.794Z,942.86
2022-12-16T01:53:55.507Z,942.88
2022-12-16T01:54:55.485Z,942.87
2022-12-16T01:55:55.109Z,942.90
2022-12-16T01:56:55.360Z,942.90
2022-12-16T01:57:55.275Z,942.95
2022-12-16T01:58:55.442Z,942.93
2022-12-16T01:59:55.309Z,942.97
2022-12-16T02:00:55.466Z,942.93
2022-12-16T02:01:55.407Z,942.96
2022-12-16T02:02:54.923Z,942.93
2022-12-16T02:03:55.009Z,942.90
2022-12-16T02:04:54.780Z,942.95
2022-12-16T02:05:55.319Z,942.94
2022-12-16T02:06:55.126Z,942.87
2022-12-16T02:07:55.306Z,942.92
2022-12-16T02:08:55.323Z,942.92
2022-12-16T02:09:55.313Z,942.96
2022-12-16T02:10:55.187Z,942.95
2022-12-16T02:11:55.519Z,942.88
2022-12-16T02:12:55.154Z,942.92
2022-12-16T02:13:55.590Z,942.99
2022-12-16T02:14:55.172Z,942.98
2022-12-16T02:15:55.339Z,942.99
2022-12-16T02:16:55.428Z,943.02
2022-12-16T02:17:55.203Z,943.06
2022-12-16T02:18:55.285Z,943.02
2022-12-16T02:19:55.189Z,943.06
2022-12-16T02:20:55.339Z,943.05
2022-12-16T02:21:55.301Z,943.09
2022-12-16T02:22:55.280Z,943.09
2022-12-16T02:23:55.175Z,943.11
2022-12-16T02:24:55.419Z,943.08
2022-12-16T02:25:55.431Z,943.14
2022-12-16T02:26:55.386Z,943.11
2022-12-16T02:27:55.476Z,943.15
2022-12-16T02:28:55.367Z,943.12
2022-12-16T02:29:55.040Z,943.11
2022-12-16T02:30:55.491Z,943.10
2022-12-16T02:31:55.375Z,943.08
2022-12-16T02:32:55.410Z,943.05
2022-12-16T02:33:55.322Z,943.11
2022-12-16T02:34:55.147Z,943.10
2022-12-16T02:35:55.313Z,943.12
2022-12-16T02:36:54.954Z,943.09
2022-12-16T02:37:55.318Z,943.15
2022-12-16T02:38:56.339Z,943.14
2022-12-16T02:39:55.369Z,943.16
2022-12-16T02:40:55.980Z,943.17
2022-12-16T02:41:55.371Z,943.20
2022-12-16T02:42:54.348Z,943.24
2022-12-16T02:43:55.431Z,943.29
2022-12-16T02:44:54.079Z,943.27
2022-12-16T02:45:55.552Z,943.23
2022-12-16T02:46:54.145Z,943.24
2022-12-16T02:47:53.989Z,943.26
2022-12-16T02:48:54.018Z,943.29
2022-12-16T02:49:54.069Z,943.30
2022-12-16T02:50:53.997Z,943.39
2022-12-16T02:51:54.017Z,943.38
2022-12-16T02:52:53.965Z,943.45
2022-12-16T02:53:55.873Z,943.47
2022-12-16T02:54:53.920Z,943.44
2022-12-16T02:55:54.085Z,943.45
2022-12-16T02:56:53.924Z,943.41
2022-12-16T02:57:53.919Z,943.46
2022-12-16T02:58:53.914Z,943.47
2022-12-16T02:59:53.825Z,943.50
2022-12-16T03:00:55.831Z,943.50
2022-12-16T03:01:55.483Z,943.50
2022-12-16T03:02:53.979Z,943.50
2022-12-16T03:03:53.831Z,943.50
2022-12-16T03:04:53.781Z,943.54
2022-12-16T03:05:55.189Z,943.57
2022-12-16T03:06:53.822Z,943.56
2022-12-16T03:07:53.798Z,943.54
2022-12-16T03:08:53.741Z,943.60
2022-12-16T03:09:53.740Z,943.54
2022-12-16T03:10:53.741Z,943.50
2022-12-16T03:11:53.702Z,943.51
2022-12-16T03:12:53.661Z,943.54
2022-12-16T03:13:53.816Z,943.51
2022-12-16T03:14:53.662Z,943.50
2022-12-16T03:15:55.305Z,943.54
2022-12-16T03:16:53.655Z,943.56
2022-12-16T03:17:53.598Z,943.58
2022-12-16T03:18:54.871Z,943.57
2022-12-16T03:19:55.346Z,943.68
2022-12-16T03:20:53.598Z,943.64
2022-12-16T03:21:53.578Z,943.62
2022-12-16T03:22:53.532Z,943.69
2022-12-16T03:23:55.108Z,943.70
2022-12-16T03:24:53.496Z,943.75
2022-12-16T03:25:53.608Z,943.78
2022-12-16T03:26:53.488Z,943.76
2022-12-16T03:27:53.525Z,943.76
2022-12-16T03:28:53.449Z,943.81
2022-12-16T03:29:53.426Z,943.78
2022-12-16T03:30:53.560Z,943.87
2022-12-16T03:31:53.466Z,943.87
2022-12-16T03:32:53.432Z,943.92
2022-12-16T03:33:53.565Z,943.89
2022-12-16T03:34:53.374Z,943.95
2022-12-16T03:35:53.371Z,943.92
2022-12-16T03:36:53.349Z,943.90
2022-12-16T03:37:53.545Z,943.91
2022-12-16T03:38:53.945Z,943.94
2022-12-16T03:39:53.314Z,943.94
2022-12-16T03:40:53.292Z,943.85
2022-12-16T03:41:53.267Z,943.89
2022-12-16T03:42:53.294Z,943.88
2022-12-16T03:43:53.635Z,943.85
2022-12-16T03:44:53.226Z,943.89
2022-12-16T03:45:53.286Z,943.90
2022-12-16T03:46:53.211Z,943.92
2022-12-16T03:47:53.172Z,943.89
2022-12-16T03:48:53.244Z,943.86
2022-12-16T03:49:53.511Z,943.89
2022-12-16T03:50:53.163Z,943.89
2022-12-16T03:51:53.177Z,943.91
2022-12-16T03:52:53.993Z,943.93
2022-12-16T03:53:53.112Z,943.93
2022-12-16T03:54:53.242Z,943.95
2022-12-16T03:55:53.287Z,943.97
2022-12-16T03:56:53.313Z,943.99
2022-12-16T03:57:53.354Z,943.98
2022-12-16T03:58:53.070Z,944.00
2022-12-16T03:59:53.198Z,944.04
2022-12-16T04:00:53.865Z,944.01
2022-12-16T04:01:53.320Z,944.06
2022-12-16T04:02:53.277Z,944.08
2022-12-16T04:03:53.816Z,944.13
2022-12-16T04:04:53.380Z,944.05
2022-12-16T04:05:52.999Z,944.11
2022-12-16T04:06:53.178Z,944.16
2022-12-16T04:07:57.341Z,944.09
2022-12-16T04:08:56.663Z,944.12
2022-12-16T04:09:52.875Z,944.19
2022-12-16T04:10:52.947Z,944.17
2022-12-16T04:11:53.031Z,944.21
2022-12-16T04:12:52.937Z,944.20
2022-12-16T04:13:53.020Z,944.21
2022-12-16T04:14:53.650Z,944.21
2022-12-16T04:15:52.867Z,944.20
2022-12-16T04:16:52.898Z,944.21
2022-12-16T04:17:52.799Z,944.25
2022-12-16T04:18:52.773Z,944.21
2022-12-16T04:19:53.116Z,944.26
2022-12-16T04:20:53.005Z,944.26
2022-12-16T04:21:52.692Z,944.26
2022-12-16T04:22:52.825Z,944.29
2022-12-16T04:23:52.672Z,944.34
2022-12-16T04:24:52.710Z,944.35
2022-12-16T04:25:53.444Z,944.39
2022-12-16T04:26:52.712Z,944.45
2022-12-16T04:27:52.604Z,944.41
2022-12-16T04:28:52.674Z,944.40
2022-12-16T04:29:52.604Z,944.40
2022-12-16T04:30:52.717Z,944.40
2022-12-16T04:31:52.724Z,944.43
2022-12-16T04:32:53.399Z,944.44
2022-12-16T04:33:52.571Z,944.46
2022-12-16T04:34:52.598Z,944.44
2022-12-16T04:35:52.601Z,944.48
2022-12-16T04:36:52.489Z,944.44
2022-12-16T04:37:52.662Z,944.43
2022-12-16T04:38:52.704Z,944.42
2022-12-16T04:39:52.793Z,944.46
2022-12-16T04:40:52.440Z,944.49
2022-12-16T04:41:52.478Z,944.55
2022-12-16T04:42:52.413Z,944.54
2022-12-16T04:43:52.645Z,944.56
2022-12-16T04:44:53.455Z,944.55
2022-12-16T04:45:52.453Z,944.57
2022-12-16T04:46:52.476Z,944.62
2022-12-16T04:47:57.085Z,944.56
2022-12-16T04:48:53.621Z,944.57
2022-12-16T04:49:52.475Z,944.63
2022-12-16T04:50:52.381Z,944.68
2022-12-16T04:51:52.344Z,944.69
2022-12-16T04:52:52.356Z,944.69
2022-12-16T04:53:52.306Z,944.76
2022-12-16T04:54:52.584Z,944.78
2022-12-16T04:55:52.275Z,944.84
2022-12-16T04:56:52.285Z,944.81
2022-12-16T04:57:52.319Z,944.83
2022-12-16T04:58:52.235Z,944.88
2022-12-16T04:59:52.206Z,944.87
2022-12-16T05:00:52.311Z,944.92
2022-12-16T05:01:52.261Z,944.88
2022-12-16T05:02:52.304Z,944.94
2022-12-16T05:03:52.362Z,944.94
2022-12-16T05:04:52.116Z,944.97
2022-12-16T05:05:52.149Z,945.03
2022-12-16T05:06:52.171Z,945.02
2022-12-16T05:07:52.113Z,945.03
2022-12-16T05:08:52.101Z,945.01
2022-12-16T05:09:52.061Z,945.05
2022-12-16T05:10:52.801Z,945.03
2022-12-16T05:11:52.095Z,945.05
2022-12-16T05:12:52.727Z,945.09
2022-12-16T05:13:52.769Z,945.10
2022-12-16T05:14:52.041Z,945.11
2022-12-16T05:15:53.048Z,945.12
2022-12-16T05:16:52.709Z,945.10
2022-12-16T05:17:51.942Z,945.14
2022-12-16T05:18:52.126Z,945.14
2022-12-16T05:19:51.959Z,945.14
2022-12-16T05:20:51.974Z,945.16
2022-12-16T05:21:51.948Z,945.14
2022-12-16T05:22:51.878Z,945.17
2022-12-16T05:23:51.895Z,945.13
2022-12-16T05:24:53.159Z,945.20
2022-12-16T05:25:51.920Z,945.17
2022-12-16T05:26:51.861Z,945.21
2022-12-16T05:27:51.890Z,945.22
2022-12-16T05:28:52.535Z,945.22
2022-12-16T05:29:51.948Z,945.27
2022-12-16T05:30:52.018Z,945.20
2022-12-16T05:31:51.956Z,945.26
2022-12-16T05:32:51.804Z,945.24
2022-12-16T05:33:51.884Z,945.33
2022-12-16T05:34:51.684Z,945.31
2022-12-16T05:35:51.713Z,945.31
2022-12-16T05:36:51.972Z,945.34
2022-12-16T05:37:51.662Z,945.33
2022-12-16T05:38:51.775Z,945.39
2022-12-16T05:39:51.661Z,945.42
2022-12-16T05:40:52.371Z,945.37
2022-12-16T05:41:51.835Z,945.43
2022-12-16T05:42:51.801Z,945.43
2022-12-16T05:43:51.646Z,945.47
2022-12-16T05:44:51.910Z,945.44
2022-12-16T05:45:51.639Z,945.48
2022-12-16T05:46:51.621Z,945.46
2022-12-16T05:47:51.532Z,945.48
2022-12-16T05:48:51.729Z,945.48
2022-12-16T05:49:51.548Z,945.49
2022-12-16T05:50:51.684Z,945.52
2022-12-16T05:51:51.948Z,945.50
2022-12-16T05:52:51.465Z,945.54
2022-12-16T05:53:51.532Z,945.55
2022-12-16T05:54:51.547Z,945.52
2022-12-16T05:55:51.446Z,945.54
2022-12-16T05:56:52.541Z,945.54
2022-12-16T05:57:51.426Z,945.60
2022-12-16T05:58:51.356Z,945.58
2022-12-16T05:59:51.386Z,945.60
2022-12-16T06:00:51.591Z,945.62
2022-12-16T06:01:55.178Z,945.58
2022-12-16T06:02:51.599Z,945.63
2022-12-16T06:03:51.386Z,945.65
2022-12-16T06:04:51.362Z,945.65
2022-12-16T06:05:51.308Z,945.68
2022-12-16T06:06:51.365Z,945.68
2022-12-16T06:07:51.284Z,945.74
2022-12-16T06:08:51.254Z,945.73
2022-12-16T06:09:56.387Z,945.70
2022-12-16T06:10:52.197Z,945.74
2022-12-16T06:11:51.639Z,945.76
2022-12-16T06:12:51.203Z,945.77
2022-12-16T06:13:52.172Z,945.77
2022-12-16T06:14:51.243Z,945.78
2022-12-16T06:15:51.269Z,945.80
2022-12-16T06:16:51.210Z,945.82
2022-12-16T06:17:51.231Z,945.84
2022-12-16T06:18:51.263Z,945.81
2022-12-16T06:19:51.129Z,945.80
2022-12-16T06:20:51.141Z,945.81
2022-12-16T06:21:51.106Z,945.87
2022-12-16T06:22:51.047Z,945.89
2022-12-16T06:23:51.040Z,945.88
2022-12-16T06:24:51.077Z,945.91
2022-12-16T06:25:51.050Z,945.91
2022-12-16T06:26:50.991Z,945.93
2022-12-16T06:27:50.998Z,945.97
2022-12-16T06:28:50.957Z,945.93
2022-12-16T06:29:51.000Z,945.94
2022-12-16T06:30:51.119Z,945.96
2022-12-16T06:31:51.072Z,945.99
2022-12-16T06:32:50.946Z,946.03
2022-12-16T06:33:54.829Z,946.00
2022-12-16T06:34:51.666Z,946.01
2022-12-16T06:35:51.031Z,946.06
2022-12-16T06:36:50.958Z,946.03
2022-12-16T06:37:50.861Z,946.02
2022-12-16T06:38:50.862Z,946.12
2022-12-16T06:39:53.087Z,946.13
2022-12-16T06:40:50.783Z,946.16
2022-12-16T06:41:50.814Z,946.23
2022-12-16T06:42:51.049Z,946.18
2022-12-16T06:43:50.797Z,946.24
2022-12-16T06:44:50.804Z,946.22
2022-12-16T06:45:50.826Z,946.25
2022-12-16T06:46:51.046Z,946.26
2022-12-16T06:47:50.749Z,946.30
2022-12-16T06:48:51.043Z,946.30
2022-12-16T06:49:50.757Z,946.33
2022-12-16T06:50:54.944Z,946.36
2022-12-16T06:51:50.710Z,946.35
2022-12-16T06:52:50.693Z,946.37
2022-12-16T06:53:50.738Z,946.40
2022-12-16T06:54:50.759Z,946.41
2022-12-16T06:55:50.599Z,946.42
2022-12-16T06:56:50.644Z,946.43
2022-12-16T06:57:50.589Z,946.50
2022-12-16T06:58:50.559Z,946.48
2022-12-16T06:59:50.567Z,946.50
2022-12-16T07:00:50.561Z,946.51
2022-12-16T07:01:51.461Z,946.50
2022-12-16T07:02:50.795Z,946.47
2022-12-16T07:03:50.499Z,946.50
2022-12-16T07:04:50.489Z,946.60
2022-12-16T07:05:50.469Z,946.57
2022-12-16T07:06:50.969Z,946.60
2022-12-16T07:07:50.418Z,946.61
2022-12-16T07:08:50.471Z,946.66
2022-12-16T07:09:50.399Z,946.69
2022-12-16T07:10:51.163Z,946.72
2022-12-16T07:11:50.424Z,946.69
2022-12-16T07:12:50.734Z,946.75
2022-12-16T07:13:50.415Z,946.75
2022-12-16T07:14:50.354Z,946.83
2022-12-16T07:15:50.397Z,946.80
2022-12-16T07:16:50.463Z,946.86
2022-12-16T07:17:50.386Z,946.87
2022-12-16T07:18:50.776Z,946.89
2022-12-16T07:19:50.292Z,946.91
2022-12-16T07:20:50.295Z,946.91
2022-12-16T07:21:50.671Z,946.91
2022-12-16T07:22:58.392Z,946.90
2022-12-16T07:23:51.239Z,946.94
2022-12-16T07:24:50.212Z,946.95
2022-12-16T07:25:50.191Z,946.95
2022-12-16T07:26:50.211Z,946.96
2022-12-16T07:27:50.150Z,946.99
2022-12-16T07:28:50.113Z,946.99
2022-12-16T07:29:50.164Z,947.02
2022-12-16T07:30:50.079Z,947.03
2022-12-16T07:31:50.503Z,947.04
2022-12-16T07:32:50.154Z,947.02
2022-12-16T07:33:50.112Z,947.02
2022-12-16T07:34:50.579Z,947.06
2022-12-16T07:35:50.081Z,947.09
2022-12-16T07:36:50.028Z,947.07
2022-12-16T07:37:50.144Z,947.14
2022-12-16T07:38:50.048Z,947.16
2022-12-16T07:39:54.584Z,947.20
2022-12-16T07:40:50.956Z,947.15
2022-12-16T07:41:49.997Z,947.17
2022-12-16T07:42:50.021Z,947.26
2022-12-16T07:43:50.057Z,947.25
2022-12-16T07:44:50.246Z,947.29
2022-12-16T07:45:50.130Z,947.27
2022-12-16T07:46:50.042Z,947.28
2022-12-16T07:47:49.897Z,947.36
2022-12-16T07:48:49.912Z,947.38
2022-12-16T07:49:49.961Z,947.37
2022-12-16T07:50:49.865Z,947.42
2022-12-16T07:51:49.873Z,947.41
2022-12-16T07:52:50.020Z,947.45
2022-12-16T07:53:49.787Z,947.44
2022-12-16T07:54:49.808Z,947.41
2022-12-16T07:55:49.932Z,947.46
2022-12-16T07:56:50.426Z,947.51
2022-12-16T07:57:50.016Z,947.48
2022-12-16T07:58:49.985Z,947.52
2022-12-16T07:59:50.214Z,947.51
2022-12-16T08:00:49.724Z,947.55
2022-12-16T08:01:50.092Z,947.52
2022-12-16T08:02:50.010Z,947.58
2022-12-16T08:03:49.826Z,947.55
2022-12-16T08:04:51.654Z,947.56
2022-12-16T08:05:49.710Z,947.61
2022-12-16T08:06:49.637Z,947.61
2022-12-16T08:07:50.037Z,947.63
2022-12-16T08:08:49.910Z,947.60
2022-12-16T08:09:56.300Z,947.62
2022-12-16T08:10:49.695Z,947.59
2022-12-16T08:11:49.720Z,947.60
2022-12-16T08:12:49.890Z,947.68
2022-12-16T08:13:49.679Z,947.68
2022-12-16T08:14:50.006Z,947.68
2022-12-16T08:15:49.837Z,947.76
2022-12-16T08:16:49.713Z,947.76
2022-12-16T08:17:49.646Z,947.78
2022-12-16T08:18:49.877Z,947.86
2022-12-16T08:19:49.688Z,947.88
2022-12-16T08:20:49.732Z,947.86
2022-12-16T08:21:50.031Z,947.86
2022-12-16T08:22:49.617Z,947.86
2022-12-16T08:23:49.683Z,947.86
2022-12-16T08:24:53.449Z,947.90
2022-12-16T08:25:49.425Z,947.92
2022-12-16T08:26:49.514Z,947.94
2022-12-16T08:27:49.638Z,947.95
2022-12-16T08:28:49.426Z,947.93
2022-12-16T08:29:49.527Z,947.98
2022-12-16T08:30:49.656Z,947.97
2022-12-16T08:31:49.495Z,947.96
2022-12-16T08:32:52.205Z,948.04
2022-12-16T08:33:50.553Z,948.03
2022-12-16T08:34:49.966Z,948.00
2022-12-16T08:35:49.307Z,948.03
2022-12-16T08:36:49.242Z,948.05
2022-12-16T08:37:49.264Z,948.01
2022-12-16T08:38:50.326Z,948.04
2022-12-16T08:40:04.853Z,947.96
2022-12-16T08:40:50.436Z,948.02
2022-12-16T08:41:49.233Z,948.05
2022-12-16T08:42:49.228Z,948.03
2022-12-16T08:43:49.118Z,948.09
2022-12-16T08:44:49.247Z,948.13
2022-12-16T08:45:49.686Z,948.17
2022-12-16T08:46:49.131Z,948.16
2022-12-16T08:47:49.572Z,948.17
2022-12-16T08:48:49.359Z,948.13
2022-12-16T08:49:49.189Z,948.20
2022-12-16T08:50:49.205Z,948.24
2022-12-16T08:51:48.990Z,948.23
2022-12-16T08:52:51.151Z,948.24
2022-12-16T08:53:48.973Z,948.23
2022-12-16T08:54:49.009Z,948.28
2022-12-16T08:55:49.104Z,948.29
2022-12-16T08:56:49.022Z,948.28
2022-12-16T08:57:48.920Z,948.31
2022-12-16T08:58:48.930Z,948.30
2022-12-16T09:01:56.559Z,948.38
2022-12-16T09:02:59.230Z,948.33
2022-12-16T09:03:57.643Z,948.39
2022-12-16T09:04:57.277Z,948.42
2022-12-16T09:05:56.907Z,948.46
2022-12-16T09:06:56.593Z,948.39
2022-12-16T09:07:57.394Z,948.46
2022-12-16T09:08:56.160Z,948.47
2022-12-16T09:09:56.988Z,948.47
2022-12-16T09:10:56.395Z,948.51
2022-12-16T09:11:56.260Z,948.53
2022-12-16T09:12:56.996Z,948.57
2022-12-16T09:13:56.252Z,948.57
2022-12-16T09:14:56.148Z,948.58
2022-12-16T09:15:56.178Z,948.56
2022-12-16T09:16:56.099Z,948.57
2022-12-16T09:17:56.081Z,948.59
2022-12-16T09:18:56.940Z,948.57
2022-12-16T09:20:06.262Z,948.62
2022-12-16T09:20:56.186Z,948.57
2022-12-16T09:21:56.088Z,948.61
2022-12-16T09:22:57.466Z,948.63
2022-12-16T09:23:55.993Z,948.65
2022-12-16T09:25:28.050Z,948.65
2022-12-16T09:26:28.404Z,948.65
2022-12-16T09:27:28.558Z,948.65
2022-12-16T09:28:27.303Z,948.68
2022-12-16T09:29:27.387Z,948.67
2022-12-16T09:30:28.292Z,948.69
2022-12-16T09:31:27.499Z,948.73
2022-12-16T09:32:27.466Z,948.71
2022-12-16T09:33:27.720Z,948.72
2022-12-16T09:34:27.445Z,948.72
2022-12-16T09:35:28.245Z,948.73
2022-12-16T09:36:27.358Z,948.73
2022-12-16T09:37:27.697Z,948.74
2022-12-16T09:38:27.353Z,948.72
2022-12-16T09:39:27.195Z,948.74
2022-12-16T09:40:27.157Z,948.73
2022-12-16T09:41:28.139Z,948.76
2022-12-16T09:42:27.115Z,948.79
2022-12-16T09:43:27.176Z,948.79
2022-12-16T09:44:27.640Z,948.78
2022-12-16T09:45:27.278Z,948.81
2022-12-16T09:46:27.365Z,948.82
2022-12-16T09:47:27.030Z,948.85
2022-12-16T09:48:27.199Z,948.88
2022-12-16T09:49:27.222Z,948.91
2022-12-16T09:50:27.325Z,948.87
2022-12-16T09:51:27.228Z,948.89
2022-12-16T09:52:27.389Z,948.95
2022-12-16T09:53:27.191Z,948.93
2022-12-16T09:54:27.570Z,948.95
2022-12-16T09:55:27.823Z,948.93
2022-12-16T09:56:27.401Z,948.93
2022-12-16T09:57:27.694Z,948.94
2022-12-16T09:58:26.916Z,949.01
2022-12-16T09:59:26.983Z,949.04
2022-12-16T10:00:27.741Z,949.04
2022-12-16T10:01:32.645Z,949.02
2022-12-16T10:02:27.151Z,949.02
2022-12-16T10:03:28.696Z,948.99
2022-12-16T10:04:26.907Z,949.03
2022-12-16T10:05:26.865Z,949.03
2022-12-16T10:06:31.467Z,949.06
2022-12-16T10:07:40.174Z,949.10
2022-12-16T10:08:27.815Z,949.03
2022-12-16T10:09:27.587Z,949.06
2022-12-16T10:10:26.804Z,949.10
2022-12-16T10:11:27.051Z,949.08
2022-12-16T10:12:28.239Z,949.07
2022-12-16T10:13:27.791Z,949.06
2022-12-16T10:14:26.816Z,949.06
2022-12-16T10:15:26.820Z,949.07
2022-12-16T10:16:27.938Z,949.09
2022-12-16T10:17:29.918Z,949.07
2022-12-16T10:18:26.785Z,949.05
2022-12-16T10:19:26.682Z,949.11
2022-12-16T10:20:26.763Z,949.06
2022-12-16T10:21:26.891Z,949.10
2022-12-16T10:22:27.106Z,949.09
2022-12-16T10:23:26.770Z,949.14
2022-12-16T10:24:26.609Z,949.14
2022-12-16T10:25:27.745Z,949.11
2022-12-16T10:26:26.589Z,949.10
2022-12-16T10:27:27.735Z,949.10
2022-12-16T10:28:26.780Z,949.09
2022-12-16T10:29:26.660Z,949.06
2022-12-16T10:30:26.604Z,949.09
2022-12-16T10:31:31.347Z,949.09
2022-12-16T10:32:30.021Z,949.09
2022-12-16T10:33:26.511Z,949.11
2022-12-16T10:34:26.783Z,949.09
2022-12-16T10:35:26.792Z,949.10
2022-12-16T10:36:28.213Z,949.07
2022-12-16T10:37:26.821Z,949.08
2022-12-16T10:38:26.649Z,949.07
2022-12-16T10:39:27.481Z,949.06
2022-12-16T10:40:27.262Z,949.06
2022-12-16T10:41:27.396Z,949.10
2022-12-16T10:42:26.634Z,949.09
2022-12-16T10:43:26.499Z,949.05
2022-12-16T10:44:26.419Z,949.09
2022-12-16T10:45:26.964Z,949.11
2022-12-16T10:46:26.453Z,949.06
2022-12-16T10:47:28.848Z,949.12
2022-12-16T10:48:26.725Z,949.11
2022-12-16T10:49:27.456Z,949.13
2022-12-16T10:50:26.287Z,949.14
2022-12-16T10:51:27.692Z,949.19
2022-12-16T10:52:26.402Z,949.18
2022-12-16T10:53:26.286Z,949.14
2022-12-16T10:54:26.282Z,949.23
2022-12-16T10:55:27.331Z,949.18
2022-12-16T10:56:27.128Z,949.20
2022-12-16T10:57:26.521Z,949.22
2022-12-16T10:58:26.661Z,949.21
2022-12-16T10:59:26.078Z,949.21
2022-12-16T11:00:26.093Z,949.21
2022-12-16T11:01:26.524Z,949.25
2022-12-16T11:02:26.918Z,949.23
2022-12-16T11:03:26.492Z,949.23
2022-12-16T11:04:26.128Z,949.22
2022-12-16T11:05:26.038Z,949.23
2022-12-16T11:06:27.146Z,949.19
2022-12-16T11:07:26.119Z,949.22
2022-12-16T11:08:26.021Z,949.23
2022-12-16T11:09:26.085Z,949.25
2022-12-16T11:10:26.186Z,949.25
2022-12-16T11:11:26.771Z,949.25
2022-12-16T11:12:25.895Z,949.23
2022-12-16T11:13:27.045Z,949.24
2022-12-16T11:14:25.992Z,949.24
2022-12-16T11:15:29.807Z,949.26
2022-12-16T11:16:26.058Z,949.31
2022-12-16T11:17:26.514Z,949.31
2022-12-16T11:18:25.970Z,949.30
2022-12-16T11:19:26.053Z,949.30
2022-12-16T11:20:26.287Z,949.30
2022-12-16T11:21:25.784Z,949.33
2022-12-16T11:22:25.713Z,949.30
2022-12-16T11:23:26.000Z,949.29
2022-12-16T11:24:27.215Z,949.28
2022-12-16T11:25:26.598Z,949.27
2022-12-16T11:26:26.173Z,949.27
2022-12-16T11:27:25.859Z,949.26
2022-12-16T11:28:25.872Z,949.30
2022-12-16T11:29:25.660Z,949.28
2022-12-16T11:30:27.254Z,949.33
2022-12-16T11:31:26.235Z,949.31
2022-12-16T11:32:25.714Z,949.36
2022-12-16T11:33:25.929Z,949.34
2022-12-16T11:34:25.552Z,949.35
2022-12-16T11:35:26.249Z,949.35
2022-12-16T11:36:25.574Z,949.30
2022-12-16T11:37:26.164Z,949.31
2022-12-16T11:38:26.687Z,949.30
2022-12-16T11:39:25.655Z,949.30
2022-12-16T11:40:25.573Z,949.31
2022-12-16T11:41:25.538Z,949.32
2022-12-16T11:42:26.280Z,949.35
2022-12-16T11:43:25.638Z,949.36
2022-12-16T11:44:25.382Z,949.35
2022-12-16T11:45:25.440Z,949.37
2022-12-16T11:46:25.602Z,949.39
2022-12-16T11:47:25.699Z,949.42
2022-12-16T11:48:25.351Z,949.45
2022-12-16T11:49:25.830Z,949.44
2022-12-16T11:50:26.043Z,949.45
2022-12-16T11:51:25.399Z,949.44
2022-12-16T11:52:36.852Z,949.46
2022-12-16T11:53:26.474Z,949.46
2022-12-16T11:54:26.000Z,949.45
2022-12-16T11:55:55.512Z,949.43
2022-12-16T11:56:26.345Z,949.40
2022-12-16T11:57:25.964Z,949.42
2022-12-16T11:58:25.332Z,949.44
2022-12-16T11:59:25.735Z,949.39
2022-12-16T12:00:25.776Z,949.39
2022-12-16T12:01:25.739Z,949.37
2022-12-16T12:02:26.033Z,949.36
2022-12-16T12:03:25.443Z,949.37
2022-12-16T12:04:25.171Z,949.40
2022-12-16T12:05:25.154Z,949.38
2022-12-16T12:06:25.101Z,949.38
2022-12-16T12:07:26.162Z,949.38
2022-12-16T12:08:25.108Z,949.40
2022-12-16T12:09:25.128Z,949.43
2022-12-16T12:10:25.143Z,949.45
2022-12-16T12:11:25.084Z,949.48
2022-12-16T12:12:26.000Z,949.45
2022-12-16T12:13:25.571Z,949.47
2022-12-16T12:14:24.997Z,949.49
2022-12-16T12:15:25.007Z,949.51
2022-12-16T12:16:25.386Z,949.46
2022-12-16T12:17:24.994Z,949.46
2022-12-16T12:18:24.954Z,949.50
2022-12-16T12:19:25.113Z,949.48
2022-12-16T12:20:24.919Z,949.50
2022-12-16T12:21:24.882Z,949.54
2022-12-16T12:22:25.102Z,949.54
2022-12-16T12:23:25.105Z,949.55
2022-12-16T12:24:25.422Z,949.61
2022-12-16T12:25:25.985Z,949.60
2022-12-16T12:26:25.131Z,949.61
2022-12-16T12:27:25.358Z,949.65
2022-12-16T12:28:25.187Z,949.67
2022-12-16T12:29:25.141Z,949.73
2022-12-16T12:30:24.765Z,949.73
2022-12-16T12:31:24.888Z,949.74